sensor_id;sensor_type;location;lat;lon;timestamp;temperature;humidity
33492;DHT22;20010;51.488;7.232;2022-09-09T00:00:24;14.90;99.90
33492;DHT22;20010;51.488;7.232;2022-09-09T00:03:19;14.80;99.90
33492;DHT22;20010;51.488;7.232;2022-09-09T00:05:58;14.80;99.90
33492;DHT22;20010;51.488;7.232;2022-09-09T00:08:54;14.70;99.90
33492;DHT22;20010;51.488;7.232;2022-09-09T00:11:36;14.70;99.90
33492;DHT22;20010;51.488;7.232;2022-09-09T00:14:23;14.70;99.90
33492;DHT22;20010;51.488;7.232;2022-09-09T00:17:00;14.70;99.90
33492;DHT22;20010;51.488;7.232;2022-09-09T00:19:45;14.60;99.90
33492;DHT22;20010;51.488;7.232;2022-09-09T00:22:22;14.60;99.90
33492;DHT22;20010;51.488;7.232;2022-09-09T00:24:52;14.60;99.90
33492;DHT22;20010;51.488;7.232;2022-09-09T00:30:14;14.60;99.90
33492;DHT22;20010;51.488;7.232;2022-09-09T00:32:43;14.60;99.90
33492;DHT22;20010;51.488;7.232;2022-09-09T00:35:23;14.50;99.90
33492;DHT22;20010;51.488;7.232;2022-09-09T00:37:53;14.60;99.90
33492;DHT22;20010;51.488;7.232;2022-09-09T00:40:35;14.50;99.90
33492;DHT22;20010;51.488;7.232;2022-09-09T00:48:13;14.60;99.90
33492;DHT22;20010;51.488;7.232;2022-09-09T00:51:16;14.60;99.90
33492;DHT22;20010;51.488;7.232;2022-09-09T00:56:47;14.60;99.90
33492;DHT22;20010;51.488;7.232;2022-09-09T01:02:25;14.60;99.90
33492;DHT22;20010;51.488;7.232;2022-09-09T01:05:23;14.50;99.90
33492;DHT22;20010;51.488;7.232;2022-09-09T01:07:48;14.60;99.90
33492;DHT22;20010;51.488;7.232;2022-09-09T01:10:51;14.60;99.90
33492;DHT22;20010;51.488;7.232;2022-09-09T01:13:29;14.60;99.90
33492;DHT22;20010;51.488;7.232;2022-09-09T01:15:59;14.60;99.90
33492;DHT22;20010;51.488;7.232;2022-09-09T01:18:31;14.60;99.90
33492;DHT22;20010;51.488;7.232;2022-09-09T01:21:09;14.60;99.90
33492;DHT22;20010;51.488;7.232;2022-09-09T01:26:39;14.60;99.90
33492;DHT22;20010;51.488;7.232;2022-09-09T01:29:12;14.60;99.90
33492;DHT22;20010;51.488;7.232;2022-09-09T01:31:59;14.60;99.90
33492;DHT22;20010;51.488;7.232;2022-09-09T01:34:34;14.60;99.90
33492;DHT22;20010;51.488;7.232;2022-09-09T01:37:08;14.70;99.90
33492;DHT22;20010;51.488;7.232;2022-09-09T01:39:39;14.60;99.90
33492;DHT22;20010;51.488;7.232;2022-09-09T01:42:09;14.60;99.90
33492;DHT22;20010;51.488;7.232;2022-09-09T01:44:36;14.60;99.90
33492;DHT22;20010;51.488;7.232;2022-09-09T01:47:04;14.60;99.90
33492;DHT22;20010;51.488;7.232;2022-09-09T01:49:32;14.60;99.90
33492;DHT22;20010;51.488;7.232;2022-09-09T01:51:59;14.70;99.90
33492;DHT22;20010;51.488;7.232;2022-09-09T01:54:29;14.70;99.90
33492;DHT22;20010;51.488;7.232;2022-09-09T02:02:26;14.70;99.90
33492;DHT22;20010;51.488;7.232;2022-09-09T02:04:54;14.80;99.90
33492;DHT22;20010;51.488;7.232;2022-09-09T02:07:56;14.80;99.90
33492;DHT22;20010;51.488;7.232;2022-09-09T02:13:32;14.70;99.90
33492;DHT22;20010;51.488;7.232;2022-09-09T02:19:15;14.80;99.90
33492;DHT22;20010;51.488;7.232;2022-09-09T02:21:34;14.80;99.90
33492;DHT22;20010;51.488;7.232;2022-09-09T02:24:06;14.80;99.90
33492;DHT22;20010;51.488;7.232;2022-09-09T02:26:39;14.70;99.90
33492;DHT22;20010;51.488;7.232;2022-09-09T02:29:22;14.80;99.90
33492;DHT22;20010;51.488;7.232;2022-09-09T02:31:50;14.70;99.90
33492;DHT22;20010;51.488;7.232;2022-09-09T02:34:19;14.70;99.90
33492;DHT22;20010;51.488;7.232;2022-09-09T02:36:48;14.70;99.90
33492;DHT22;20010;51.488;7.232;2022-09-09T02:39:16;14.70;99.90
33492;DHT22;20010;51.488;7.232;2022-09-09T02:41:43;14.70;99.90
33492;DHT22;20010;51.488;7.232;2022-09-09T02:44:14;14.70;99.90
33492;DHT22;20010;51.488;7.232;2022-09-09T02:50:43;14.80;99.90
33492;DHT22;20010;51.488;7.232;2022-09-09T02:53:17;14.80;99.90
33492;DHT22;20010;51.488;7.232;2022-09-09T02:56:04;14.80;99.90
33492;DHT22;20010;51.488;7.232;2022-09-09T02:58:33;14.80;99.90
33492;DHT22;20010;51.488;7.232;2022-09-09T03:01:00;14.80;99.90
33492;DHT22;20010;51.488;7.232;2022-09-09T03:03:29;14.80;99.90
33492;DHT22;20010;51.488;7.232;2022-09-09T03:05:59;14.90;99.90
33492;DHT22;20010;51.488;7.232;2022-09-09T03:08:26;14.90;99.90
33492;DHT22;20010;51.488;7.232;2022-09-09T03:10:54;14.90;99.90
33492;DHT22;20010;51.488;7.232;2022-09-09T03:13:21;14.90;99.90
33492;DHT22;20010;51.488;7.232;2022-09-09T03:15:48;14.90;99.90
33492;DHT22;20010;51.488;7.232;2022-09-09T03:18:15;14.90;99.90
33492;DHT22;20010;51.488;7.232;2022-09-09T03:20:42;14.90;99.90
33492;DHT22;20010;51.488;7.232;2022-09-09T03:23:09;14.90;99.90
33492;DHT22;20010;51.488;7.232;2022-09-09T03:25:47;14.90;99.90
33492;DHT22;20010;51.488;7.232;2022-09-09T03:28:14;14.90;99.90
33492;DHT22;20010;51.488;7.232;2022-09-09T03:30:41;14.90;99.90
33492;DHT22;20010;51.488;7.232;2022-09-09T03:33:08;15.00;99.90
33492;DHT22;20010;51.488;7.232;2022-09-09T03:35:35;14.90;99.90
33492;DHT22;20010;51.488;7.232;2022-09-09T03:38:02;14.90;99.90
33492;DHT22;20010;51.488;7.232;2022-09-09T03:40:29;14.90;99.90
33492;DHT22;20010;51.488;7.232;2022-09-09T03:42:57;14.90;99.90
33492;DHT22;20010;51.488;7.232;2022-09-09T03:45:24;14.90;99.90
33492;DHT22;20010;51.488;7.232;2022-09-09T03:47:51;14.80;99.90
33492;DHT22;20010;51.488;7.232;2022-09-09T03:50:17;14.80;99.90
33492;DHT22;20010;51.488;7.232;2022-09-09T03:52:45;14.80;99.90
33492;DHT22;20010;51.488;7.232;2022-09-09T03:55:12;14.80;99.90
33492;DHT22;20010;51.488;7.232;2022-09-09T03:57:39;14.70;99.90
33492;DHT22;20010;51.488;7.232;2022-09-09T04:00:07;14.70;99.90
33492;DHT22;20010;51.488;7.232;2022-09-09T04:02:34;14.70;99.90
33492;DHT22;20010;51.488;7.232;2022-09-09T04:05:01;14.70;99.90
33492;DHT22;20010;51.488;7.232;2022-09-09T04:07:28;14.70;99.90
33492;DHT22;20010;51.488;7.232;2022-09-09T04:09:55;14.70;99.90
33492;DHT22;20010;51.488;7.232;2022-09-09T04:12:22;14.80;99.90
33492;DHT22;20010;51.488;7.232;2022-09-09T04:14:49;14.80;99.90
33492;DHT22;20010;51.488;7.232;2022-09-09T04:17:16;14.80;99.90
33492;DHT22;20010;51.488;7.232;2022-09-09T04:19:43;14.90;99.90
33492;DHT22;20010;51.488;7.232;2022-09-09T04:22:10;14.90;99.90
33492;DHT22;20010;51.488;7.232;2022-09-09T04:24:37;14.90;99.90
33492;DHT22;20010;51.488;7.232;2022-09-09T04:27:04;14.80;99.90
33492;DHT22;20010;51.488;7.232;2022-09-09T04:29:31;14.90;99.90
33492;DHT22;20010;51.488;7.232;2022-09-09T04:31:57;14.90;99.90
33492;DHT22;20010;51.488;7.232;2022-09-09T04:34:24;14.90;99.90
33492;DHT22;20010;51.488;7.232;2022-09-09T04:36:52;14.90;99.90
33492;DHT22;20010;51.488;7.232;2022-09-09T04:39:19;14.90;99.90
33492;DHT22;20010;51.488;7.232;2022-09-09T04:41:46;14.90;99.90
33492;DHT22;20010;51.488;7.232;2022-09-09T04:44:13;14.80;99.90
33492;DHT22;20010;51.488;7.232;2022-09-09T04:46:40;14.80;99.90
33492;DHT22;20010;51.488;7.232;2022-09-09T04:49:07;14.80;99.90
33492;DHT22;20010;51.488;7.232;2022-09-09T04:51:40;14.80;99.90
33492;DHT22;20010;51.488;7.232;2022-09-09T04:54:07;14.80;99.90
33492;DHT22;20010;51.488;7.232;2022-09-09T04:56:34;14.70;99.90
33492;DHT22;20010;51.488;7.232;2022-09-09T04:59:01;14.70;99.90
33492;DHT22;20010;51.488;7.232;2022-09-09T05:01:29;14.70;99.90
33492;DHT22;20010;51.488;7.232;2022-09-09T05:03:56;14.80;99.90
33492;DHT22;20010;51.488;7.232;2022-09-09T05:06:23;14.80;99.90
33492;DHT22;20010;51.488;7.232;2022-09-09T05:08:50;14.80;99.90
33492;DHT22;20010;51.488;7.232;2022-09-09T05:11:25;14.80;99.90
33492;DHT22;20010;51.488;7.232;2022-09-09T05:13:53;14.90;99.90
33492;DHT22;20010;51.488;7.232;2022-09-09T05:16:21;14.90;99.90
33492;DHT22;20010;51.488;7.232;2022-09-09T05:18:49;14.90;99.90
33492;DHT22;20010;51.488;7.232;2022-09-09T05:21:19;14.90;99.90
33492;DHT22;20010;51.488;7.232;2022-09-09T05:23:46;14.90;99.90
33492;DHT22;20010;51.488;7.232;2022-09-09T05:26:16;15.00;99.90
33492;DHT22;20010;51.488;7.232;2022-09-09T05:28:44;15.00;99.90
33492;DHT22;20010;51.488;7.232;2022-09-09T05:31:12;15.00;99.90
33492;DHT22;20010;51.488;7.232;2022-09-09T05:33:41;15.00;99.90
33492;DHT22;20010;51.488;7.232;2022-09-09T05:36:11;15.00;99.90
33492;DHT22;20010;51.488;7.232;2022-09-09T05:38:42;15.00;99.90
33492;DHT22;20010;51.488;7.232;2022-09-09T05:41:10;15.10;99.90
33492;DHT22;20010;51.488;7.232;2022-09-09T05:43:38;15.10;99.90
33492;DHT22;20010;51.488;7.232;2022-09-09T05:48:36;15.10;99.90
33492;DHT22;20010;51.488;7.232;2022-09-09T05:51:06;15.10;99.90
33492;DHT22;20010;51.488;7.232;2022-09-09T05:53:36;15.20;99.90
33492;DHT22;20010;51.488;7.232;2022-09-09T05:56:05;15.20;99.90
33492;DHT22;20010;51.488;7.232;2022-09-09T05:58:33;15.20;99.90
33492;DHT22;20010;51.488;7.232;2022-09-09T06:03:32;15.20;99.90
33492;DHT22;20010;51.488;7.232;2022-09-09T06:06:07;15.20;99.90
33492;DHT22;20010;51.488;7.232;2022-09-09T06:08:37;15.30;99.90
33492;DHT22;20010;51.488;7.232;2022-09-09T06:11:10;15.30;99.90
33492;DHT22;20010;51.488;7.232;2022-09-09T06:13:38;15.30;99.90
33492;DHT22;20010;51.488;7.232;2022-09-09T06:16:09;15.40;99.90
33492;DHT22;20010;51.488;7.232;2022-09-09T06:18:41;15.40;99.90
33492;DHT22;20010;51.488;7.232;2022-09-09T06:21:16;15.40;99.90
33492;DHT22;20010;51.488;7.232;2022-09-09T06:23:43;15.40;99.90
33492;DHT22;20010;51.488;7.232;2022-09-09T06:26:20;15.40;99.90
33492;DHT22;20010;51.488;7.232;2022-09-09T06:28:48;15.40;99.90
33492;DHT22;20010;51.488;7.232;2022-09-09T06:31:17;15.40;99.90
33492;DHT22;20010;51.488;7.232;2022-09-09T06:33:53;15.50;99.90
33492;DHT22;20010;51.488;7.232;2022-09-09T06:38:50;15.60;99.90
33492;DHT22;20010;51.488;7.232;2022-09-09T06:41:18;15.60;99.90
33492;DHT22;20010;51.488;7.232;2022-09-09T06:43:48;15.60;99.90
33492;DHT22;20010;51.488;7.232;2022-09-09T06:48:44;15.70;99.90
33492;DHT22;20010;51.488;7.232;2022-09-09T06:51:18;15.80;99.90
33492;DHT22;20010;51.488;7.232;2022-09-09T06:53:46;15.80;99.90
33492;DHT22;20010;51.488;7.232;2022-09-09T06:58:44;16.00;99.90
33492;DHT22;20010;51.488;7.232;2022-09-09T07:01:16;16.00;99.90
33492;DHT22;20010;51.488;7.232;2022-09-09T07:03:49;16.10;99.90
33492;DHT22;20010;51.488;7.232;2022-09-09T07:06:25;16.10;99.90
33492;DHT22;20010;51.488;7.232;2022-09-09T07:08:57;16.10;99.90
33492;DHT22;20010;51.488;7.232;2022-09-09T07:11:31;16.10;99.90
33492;DHT22;20010;51.488;7.232;2022-09-09T07:13:59;16.20;99.90
33492;DHT22;20010;51.488;7.232;2022-09-09T07:16:26;16.20;99.90
33492;DHT22;20010;51.488;7.232;2022-09-09T07:18:54;16.30;99.90
33492;DHT22;20010;51.488;7.232;2022-09-09T07:21:29;16.30;99.90
33492;DHT22;20010;51.488;7.232;2022-09-09T07:23:56;16.40;99.90
33492;DHT22;20010;51.488;7.232;2022-09-09T07:26:25;16.50;99.90
33492;DHT22;20010;51.488;7.232;2022-09-09T07:28:52;16.50;99.90
33492;DHT22;20010;51.488;7.232;2022-09-09T07:31:28;16.60;99.90
33492;DHT22;20010;51.488;7.232;2022-09-09T07:33:57;16.70;99.90
33492;DHT22;20010;51.488;7.232;2022-09-09T07:36:31;16.80;99.90
33492;DHT22;20010;51.488;7.232;2022-09-09T07:39:11;16.80;99.90
33492;DHT22;20010;51.488;7.232;2022-09-09T07:41:44;16.90;99.90
33492;DHT22;20010;51.488;7.232;2022-09-09T07:44:14;16.90;99.90
33492;DHT22;20010;51.488;7.232;2022-09-09T07:46:42;16.80;99.90
33492;DHT22;20010;51.488;7.232;2022-09-09T07:49:10;16.80;99.90
33492;DHT22;20010;51.488;7.232;2022-09-09T07:51:39;16.90;99.90
33492;DHT22;20010;51.488;7.232;2022-09-09T07:54:12;16.90;99.90
33492;DHT22;20010;51.488;7.232;2022-09-09T07:56:40;16.90;99.90
33492;DHT22;20010;51.488;7.232;2022-09-09T07:59:08;16.90;99.90
33492;DHT22;20010;51.488;7.232;2022-09-09T08:01:42;16.90;99.90
33492;DHT22;20010;51.488;7.232;2022-09-09T08:04:15;17.00;99.90
33492;DHT22;20010;51.488;7.232;2022-09-09T08:06:49;17.00;99.90
33492;DHT22;20010;51.488;7.232;2022-09-09T08:09:17;17.00;99.90
33492;DHT22;20010;51.488;7.232;2022-09-09T08:11:44;17.10;99.90
33492;DHT22;20010;51.488;7.232;2022-09-09T08:14:11;17.20;99.90
33492;DHT22;20010;51.488;7.232;2022-09-09T08:16:41;17.30;99.90
33492;DHT22;20010;51.488;7.232;2022-09-09T08:19:08;17.30;99.90
33492;DHT22;20010;51.488;7.232;2022-09-09T08:21:37;17.40;99.90
33492;DHT22;20010;51.488;7.232;2022-09-09T08:24:06;17.40;99.90
33492;DHT22;20010;51.488;7.232;2022-09-09T08:26:38;17.40;99.90
33492;DHT22;20010;51.488;7.232;2022-09-09T08:29:07;17.50;99.90
33492;DHT22;20010;51.488;7.232;2022-09-09T08:31:36;17.50;99.90
33492;DHT22;20010;51.488;7.232;2022-09-09T08:34:05;17.50;99.90
33492;DHT22;20010;51.488;7.232;2022-09-09T08:36:35;17.50;99.90
33492;DHT22;20010;51.488;7.232;2022-09-09T08:39:03;17.40;99.90
33492;DHT22;20010;51.488;7.232;2022-09-09T08:44:41;17.40;99.90
33492;DHT22;20010;51.488;7.232;2022-09-09T08:47:39;17.40;99.90
33492;DHT22;20010;51.488;7.232;2022-09-09T08:50:26;17.40;99.90
33492;DHT22;20010;51.488;7.232;2022-09-09T08:53:02;17.40;99.90
33492;DHT22;20010;51.488;7.232;2022-09-09T08:58:23;17.60;99.90
33492;DHT22;20010;51.488;7.232;2022-09-09T09:14:24;18.10;99.90
33492;DHT22;20010;51.488;7.232;2022-09-09T09:17:02;18.20;99.90
33492;DHT22;20010;51.488;7.232;2022-09-09T09:19:32;18.30;99.90
33492;DHT22;20010;51.488;7.232;2022-09-09T09:23:06;18.40;99.90
33492;DHT22;20010;51.488;7.232;2022-09-09T09:25:20;18.50;99.90
33492;DHT22;20010;51.488;7.232;2022-09-09T09:28:07;18.40;99.90
33492;DHT22;20010;51.488;7.232;2022-09-09T09:30:44;18.30;99.90
33492;DHT22;20010;51.488;7.232;2022-09-09T09:36:08;18.40;99.90
33492;DHT22;20010;51.488;7.232;2022-09-09T09:38:36;18.30;99.90
33492;DHT22;20010;51.488;7.232;2022-09-09T09:41:41;18.30;99.90
33492;DHT22;20010;51.488;7.232;2022-09-09T09:46:52;18.50;99.90
33492;DHT22;20010;51.488;7.232;2022-09-09T09:49:19;18.60;99.90
33492;DHT22;20010;51.488;7.232;2022-09-09T09:51:46;18.70;99.90
33492;DHT22;20010;51.488;7.232;2022-09-09T09:56:42;18.80;99.90
33492;DHT22;20010;51.488;7.232;2022-09-09T09:59:33;18.90;99.90
33492;DHT22;20010;51.488;7.232;2022-09-09T10:02:23;19.00;99.90
33492;DHT22;20010;51.488;7.232;2022-09-09T10:05:20;19.20;99.90
33492;DHT22;20010;51.488;7.232;2022-09-09T10:13:24;19.20;99.90
33492;DHT22;20010;51.488;7.232;2022-09-09T10:35:09;19.00;99.90
33492;DHT22;20010;51.488;7.232;2022-09-09T10:40:38;19.50;99.90
33492;DHT22;20010;51.488;7.232;2022-09-09T10:54:42;19.70;99.90
33492;DHT22;20010;51.488;7.232;2022-09-09T10:59:52;19.60;99.90
33492;DHT22;20010;51.488;7.232;2022-09-09T11:02:31;19.70;99.90
33492;DHT22;20010;51.488;7.232;2022-09-09T11:05:19;19.80;99.90
33492;DHT22;20010;51.488;7.232;2022-09-09T11:08:05;19.80;99.90
33492;DHT22;20010;51.488;7.232;2022-09-09T11:10:58;19.80;99.90
33492;DHT22;20010;51.488;7.232;2022-09-09T11:19:11;19.60;99.90
33492;DHT22;20010;51.488;7.232;2022-09-09T11:21:49;19.50;99.90
33492;DHT22;20010;51.488;7.232;2022-09-09T11:26:57;19.60;99.90
33492;DHT22;20010;51.488;7.232;2022-09-09T11:32:34;19.80;99.90
33492;DHT22;20010;51.488;7.232;2022-09-09T11:40:59;20.50;99.90
33492;DHT22;20010;51.488;7.232;2022-09-09T11:43:30;20.40;99.90
33492;DHT22;20010;51.488;7.232;2022-09-09T11:46:00;20.40;99.90
33492;DHT22;20010;51.488;7.232;2022-09-09T11:48:33;20.20;99.90
33492;DHT22;20010;51.488;7.232;2022-09-09T11:51:07;20.00;99.90
33492;DHT22;20010;51.488;7.232;2022-09-09T11:53:57;19.90;99.90
33492;DHT22;20010;51.488;7.232;2022-09-09T11:59:32;19.90;99.90
33492;DHT22;20010;51.488;7.232;2022-09-09T12:02:24;20.00;99.90
33492;DHT22;20010;51.488;7.232;2022-09-09T12:07:41;19.80;99.90
33492;DHT22;20010;51.488;7.232;2022-09-09T12:10:31;19.80;99.90
33492;DHT22;20010;51.488;7.232;2022-09-09T12:13:26;19.70;99.90
33492;DHT22;20010;51.488;7.232;2022-09-09T12:15:58;19.60;99.90
33492;DHT22;20010;51.488;7.232;2022-09-09T12:18:31;19.60;99.90
33492;DHT22;20010;51.488;7.232;2022-09-09T12:26:29;19.30;99.90
33492;DHT22;20010;51.488;7.232;2022-09-09T12:34:54;19.60;99.90
33492;DHT22;20010;51.488;7.232;2022-09-09T12:37:41;19.90;99.90
33492;DHT22;20010;51.488;7.232;2022-09-09T12:42:44;19.80;99.90
33492;DHT22;20010;51.488;7.232;2022-09-09T12:45:17;19.60;99.90
33492;DHT22;20010;51.488;7.232;2022-09-09T12:50:25;19.40;99.90
33492;DHT22;20010;51.488;7.232;2022-09-09T12:53:07;19.20;99.90
33492;DHT22;20010;51.488;7.232;2022-09-09T12:55:38;19.10;99.90
33492;DHT22;20010;51.488;7.232;2022-09-09T12:58:06;19.00;99.90
33492;DHT22;20010;51.488;7.232;2022-09-09T13:00:34;19.20;99.90
33492;DHT22;20010;51.488;7.232;2022-09-09T13:03:03;19.20;99.90
33492;DHT22;20010;51.488;7.232;2022-09-09T13:05:42;19.50;99.90
33492;DHT22;20010;51.488;7.232;2022-09-09T13:08:11;20.00;99.90
33492;DHT22;20010;51.488;7.232;2022-09-09T13:10:55;20.30;99.90
33492;DHT22;20010;51.488;7.232;2022-09-09T13:16:00;20.90;99.90
33492;DHT22;20010;51.488;7.232;2022-09-09T13:18:34;21.10;99.90
33492;DHT22;20010;51.488;7.232;2022-09-09T13:21:02;21.20;99.90
33492;DHT22;20010;51.488;7.232;2022-09-09T13:23:32;21.50;99.90
33492;DHT22;20010;51.488;7.232;2022-09-09T13:26:02;21.40;99.90
33492;DHT22;20010;51.488;7.232;2022-09-09T13:28:31;20.90;99.90
33492;DHT22;20010;51.488;7.232;2022-09-09T13:31:02;20.40;99.90
33492;DHT22;20010;51.488;7.232;2022-09-09T13:33:37;20.20;99.90
33492;DHT22;20010;51.488;7.232;2022-09-09T13:36:10;20.10;99.90
33492;DHT22;20010;51.488;7.232;2022-09-09T13:38:56;20.00;99.90
33492;DHT22;20010;51.488;7.232;2022-09-09T13:41:32;19.90;99.90
33492;DHT22;20010;51.488;7.232;2022-09-09T13:44:01;19.70;99.90
33492;DHT22;20010;51.488;7.232;2022-09-09T13:46:36;19.60;99.90
33492;DHT22;20010;51.488;7.232;2022-09-09T13:51:36;19.20;99.90
33492;DHT22;20010;51.488;7.232;2022-09-09T13:54:09;19.00;99.90
33492;DHT22;20010;51.488;7.232;2022-09-09T13:56:38;18.70;99.90
33492;DHT22;20010;51.488;7.232;2022-09-09T13:59:09;18.30;99.90
33492;DHT22;20010;51.488;7.232;2022-09-09T14:01:37;17.80;99.90
33492;DHT22;20010;51.488;7.232;2022-09-09T14:04:04;17.60;99.90
33492;DHT22;20010;51.488;7.232;2022-09-09T14:06:35;17.60;99.90
33492;DHT22;20010;51.488;7.232;2022-09-09T14:09:06;17.70;99.90
33492;DHT22;20010;51.488;7.232;2022-09-09T14:11:33;17.70;99.90
33492;DHT22;20010;51.488;7.232;2022-09-09T14:14:00;17.80;99.90
33492;DHT22;20010;51.488;7.232;2022-09-09T14:16:29;17.70;99.90
33492;DHT22;20010;51.488;7.232;2022-09-09T14:18:55;17.70;99.90
33492;DHT22;20010;51.488;7.232;2022-09-09T14:21:23;17.80;99.90
33492;DHT22;20010;51.488;7.232;2022-09-09T14:23:50;18.10;99.90
33492;DHT22;20010;51.488;7.232;2022-09-09T14:26:17;18.50;99.90
33492;DHT22;20010;51.488;7.232;2022-09-09T14:28:45;18.80;99.90
33492;DHT22;20010;51.488;7.232;2022-09-09T14:31:22;18.90;99.90
33492;DHT22;20010;51.488;7.232;2022-09-09T14:33:49;19.00;99.90
33492;DHT22;20010;51.488;7.232;2022-09-09T14:36:26;19.20;99.90
33492;DHT22;20010;51.488;7.232;2022-09-09T14:38:53;19.10;99.90
33492;DHT22;20010;51.488;7.232;2022-09-09T14:41:20;19.00;99.90
33492;DHT22;20010;51.488;7.232;2022-09-09T14:43:49;18.90;99.90
33492;DHT22;20010;51.488;7.232;2022-09-09T14:46:18;18.90;99.90
33492;DHT22;20010;51.488;7.232;2022-09-09T14:48:46;18.80;99.90
33492;DHT22;20010;51.488;7.232;2022-09-09T14:51:23;18.70;99.90
33492;DHT22;20010;51.488;7.232;2022-09-09T14:53:52;18.50;99.90
33492;DHT22;20010;51.488;7.232;2022-09-09T14:56:21;18.70;99.90
33492;DHT22;20010;51.488;7.232;2022-09-09T14:58:49;18.90;99.90
33492;DHT22;20010;51.488;7.232;2022-09-09T15:01:19;19.00;99.90
33492;DHT22;20010;51.488;7.232;2022-09-09T15:03:54;19.20;99.90
33492;DHT22;20010;51.488;7.232;2022-09-09T15:06:22;19.40;99.90
33492;DHT22;20010;51.488;7.232;2022-09-09T15:08:51;19.50;99.90
33492;DHT22;20010;51.488;7.232;2022-09-09T15:11:19;19.30;99.90
33492;DHT22;20010;51.488;7.232;2022-09-09T15:13:46;19.10;99.90
33492;DHT22;20010;51.488;7.232;2022-09-09T15:16:15;19.00;99.90
33492;DHT22;20010;51.488;7.232;2022-09-09T15:18:44;18.90;99.90
33492;DHT22;20010;51.488;7.232;2022-09-09T15:21:20;18.80;99.90
33492;DHT22;20010;51.488;7.232;2022-09-09T15:23:48;18.70;99.90
33492;DHT22;20010;51.488;7.232;2022-09-09T15:26:15;18.40;99.90
33492;DHT22;20010;51.488;7.232;2022-09-09T15:28:44;17.70;99.90
33492;DHT22;20010;51.488;7.232;2022-09-09T15:33:50;16.70;99.90
33492;DHT22;20010;51.488;7.232;2022-09-09T15:36:20;16.60;99.90
33492;DHT22;20010;51.488;7.232;2022-09-09T15:38:48;16.40;99.90
33492;DHT22;20010;51.488;7.232;2022-09-09T15:41:16;16.40;99.90
33492;DHT22;20010;51.488;7.232;2022-09-09T15:43:50;16.20;99.90
33492;DHT22;20010;51.488;7.232;2022-09-09T15:49:14;15.90;99.90
33492;DHT22;20010;51.488;7.232;2022-09-09T15:51:46;15.90;99.90
33492;DHT22;20010;51.488;7.232;2022-09-09T15:54:18;15.80;99.90
33492;DHT22;20010;51.488;7.232;2022-09-09T15:56:46;15.70;99.90
33492;DHT22;20010;51.488;7.232;2022-09-09T15:59:15;15.80;99.90
33492;DHT22;20010;51.488;7.232;2022-09-09T16:01:42;15.70;99.90
33492;DHT22;20010;51.488;7.232;2022-09-09T16:04:10;15.70;99.90
33492;DHT22;20010;51.488;7.232;2022-09-09T16:06:37;15.60;99.90
33492;DHT22;20010;51.488;7.232;2022-09-09T16:09:05;15.60;99.90
33492;DHT22;20010;51.488;7.232;2022-09-09T16:11:35;15.60;99.90
33492;DHT22;20010;51.488;7.232;2022-09-09T16:14:02;15.60;99.90
33492;DHT22;20010;51.488;7.232;2022-09-09T16:16:30;15.60;99.90
33492;DHT22;20010;51.488;7.232;2022-09-09T16:19:00;15.60;99.90
33492;DHT22;20010;51.488;7.232;2022-09-09T16:21:35;15.60;99.90
33492;DHT22;20010;51.488;7.232;2022-09-09T16:24:05;15.70;99.90
33492;DHT22;20010;51.488;7.232;2022-09-09T16:26:34;15.70;99.90
33492;DHT22;20010;51.488;7.232;2022-09-09T16:29:02;15.70;99.90
33492;DHT22;20010;51.488;7.232;2022-09-09T16:31:30;15.70;99.90
33492;DHT22;20010;51.488;7.232;2022-09-09T16:33:58;15.70;99.90
33492;DHT22;20010;51.488;7.232;2022-09-09T16:36:27;15.80;99.90
33492;DHT22;20010;51.488;7.232;2022-09-09T16:39:02;15.80;99.90
33492;DHT22;20010;51.488;7.232;2022-09-09T16:41:30;15.70;99.90
33492;DHT22;20010;51.488;7.232;2022-09-09T16:43:59;15.80;99.90
33492;DHT22;20010;51.488;7.232;2022-09-09T16:46:27;15.70;99.90
33492;DHT22;20010;51.488;7.232;2022-09-09T16:48:57;15.80;99.90
33492;DHT22;20010;51.488;7.232;2022-09-09T16:51:30;15.80;99.90
33492;DHT22;20010;51.488;7.232;2022-09-09T16:53:59;15.80;99.90
33492;DHT22;20010;51.488;7.232;2022-09-09T16:56:29;15.80;99.90
33492;DHT22;20010;51.488;7.232;2022-09-09T16:58:58;15.70;99.90
33492;DHT22;20010;51.488;7.232;2022-09-09T17:01:27;15.70;99.90
33492;DHT22;20010;51.488;7.232;2022-09-09T17:03:55;15.60;99.90
33492;DHT22;20010;51.488;7.232;2022-09-09T17:06:28;15.50;99.90
33492;DHT22;20010;51.488;7.232;2022-09-09T17:08:56;15.50;99.90
33492;DHT22;20010;51.488;7.232;2022-09-09T17:11:24;15.50;99.90
33492;DHT22;20010;51.488;7.232;2022-09-09T17:13:52;15.50;99.90
33492;DHT22;20010;51.488;7.232;2022-09-09T17:16:20;15.50;99.90
33492;DHT22;20010;51.488;7.232;2022-09-09T17:18:49;15.50;99.90
33492;DHT22;20010;51.488;7.232;2022-09-09T17:21:19;15.60;99.90
33492;DHT22;20010;51.488;7.232;2022-09-09T17:23:46;15.60;99.90
33492;DHT22;20010;51.488;7.232;2022-09-09T17:26:16;15.70;99.90
33492;DHT22;20010;51.488;7.232;2022-09-09T17:28:44;15.60;99.90
33492;DHT22;20010;51.488;7.232;2022-09-09T17:31:14;15.70;99.90
33492;DHT22;20010;51.488;7.232;2022-09-09T17:33:44;15.70;99.90
33492;DHT22;20010;51.488;7.232;2022-09-09T17:36:21;15.60;99.90
33492;DHT22;20010;51.488;7.232;2022-09-09T17:38:52;15.70;99.90
33492;DHT22;20010;51.488;7.232;2022-09-09T17:41:28;15.70;99.90
33492;DHT22;20010;51.488;7.232;2022-09-09T17:43:55;15.70;99.90
33492;DHT22;20010;51.488;7.232;2022-09-09T17:46:29;15.70;99.90
33492;DHT22;20010;51.488;7.232;2022-09-09T17:48:58;15.60;99.90
33492;DHT22;20010;51.488;7.232;2022-09-09T17:51:27;15.60;99.90
33492;DHT22;20010;51.488;7.232;2022-09-09T17:53:59;15.70;99.90
33492;DHT22;20010;51.488;7.232;2022-09-09T17:56:28;15.60;99.90
33492;DHT22;20010;51.488;7.232;2022-09-09T17:58:58;15.60;99.90
33492;DHT22;20010;51.488;7.232;2022-09-09T18:01:30;15.60;99.90
33492;DHT22;20010;51.488;7.232;2022-09-09T18:04:03;15.60;99.90
33492;DHT22;20010;51.488;7.232;2022-09-09T18:06:35;15.60;99.90
33492;DHT22;20010;51.488;7.232;2022-09-09T18:09:11;15.70;99.90
33492;DHT22;20010;51.488;7.232;2022-09-09T18:11:42;15.60;99.90
33492;DHT22;20010;51.488;7.232;2022-09-09T18:14:16;15.70;99.90
33492;DHT22;20010;51.488;7.232;2022-09-09T18:16:44;15.70;99.90
33492;DHT22;20010;51.488;7.232;2022-09-09T18:19:13;15.60;99.90
33492;DHT22;20010;51.488;7.232;2022-09-09T18:21:41;15.70;99.90
33492;DHT22;20010;51.488;7.232;2022-09-09T18:24:10;15.60;99.90
33492;DHT22;20010;51.488;7.232;2022-09-09T18:26:38;15.70;99.90
33492;DHT22;20010;51.488;7.232;2022-09-09T18:29:08;15.70;99.90
33492;DHT22;20010;51.488;7.232;2022-09-09T18:31:36;15.70;99.90
33492;DHT22;20010;51.488;7.232;2022-09-09T18:34:05;15.70;99.90
33492;DHT22;20010;51.488;7.232;2022-09-09T18:36:44;15.70;99.90
33492;DHT22;20010;51.488;7.232;2022-09-09T18:39:14;15.70;99.90
33492;DHT22;20010;51.488;7.232;2022-09-09T18:41:46;15.70;99.90